createdAt,value
2017-10-15T00:00:54.251Z,17.93
2017-10-15T00:03:21.871Z,17.70
2017-10-15T00:05:50.297Z,18.87
2017-10-15T00:08:17.991Z,17.97
2017-10-15T00:10:45.596Z,19.67
2017-10-15T00:13:13.234Z,19.10
2017-10-15T00:15:41.577Z,19.40
2017-10-15T00:18:09.756Z,19.90
2017-10-15T00:20:37.367Z,20.10
2017-10-15T00:23:05.016Z,20.40
2017-10-15T00:25:32.664Z,20.70
2017-10-15T00:28:01.044Z,17.87
2017-10-15T00:30:28.710Z,16.33
2017-10-15T00:32:56.313Z,17.93
2017-10-15T00:35:23.936Z,17.23
2017-10-15T00:37:51.593Z,17.47
2017-10-15T00:40:19.233Z,17.87
2017-10-15T00:42:46.862Z,18.70
2017-10-15T00:45:14.449Z,19.57
2017-10-15T00:47:42.070Z,19.47
2017-10-15T00:50:10.397Z,17.27
2017-10-15T00:52:38.110Z,19.87
2017-10-15T00:55:05.770Z,20.40
2017-10-15T00:57:33.381Z,17.57
2017-10-15T01:00:01.020Z,17.97
2017-10-15T01:02:28.722Z,19.70
2017-10-15T01:04:56.378Z,17.83
2017-10-15T01:07:23.994Z,16.43
2017-10-15T01:09:51.614Z,19.43
2017-10-15T01:12:19.995Z,15.50
2017-10-15T01:14:48.333Z,18.60
2017-10-15T01:17:15.972Z,16.27
2017-10-15T01:19:43.567Z,17.60
2017-10-15T01:22:11.261Z,17.73
2017-10-15T01:24:39.671Z,16.87
2017-10-15T01:27:07.333Z,17.00
2017-10-15T01:29:34.997Z,16.93
2017-10-15T01:32:02.598Z,19.60
2017-10-15T01:34:30.237Z,16.03
2017-10-15T01:36:57.817Z,18.60
2017-10-15T01:39:25.463Z,17.77
2017-10-15T01:41:53.098Z,16.90
2017-10-15T01:44:20.749Z,17.30
2017-10-15T01:46:48.393Z,17.10
2017-10-15T01:49:16.000Z,15.70
2017-10-15T01:51:43.641Z,16.73
2017-10-15T01:54:11.259Z,15.90
2017-10-15T01:56:38.883Z,16.73
2017-10-15T01:59:06.542Z,17.42
2017-10-15T02:01:34.156Z,15.97
2017-10-15T02:04:01.981Z,14.67
2017-10-15T02:06:29.619Z,17.20
2017-10-15T02:08:57.220Z,15.03
2017-10-15T02:11:24.840Z,14.65
2017-10-15T02:13:52.475Z,14.70
2017-10-15T02:16:20.114Z,14.00
2017-10-15T02:18:48.469Z,12.70
2017-10-15T02:21:16.058Z,13.70
2017-10-15T02:23:45.377Z,12.70
2017-10-15T02:26:12.968Z,13.17
2017-10-15T02:28:40.683Z,13.17
2017-10-15T02:31:09.039Z,13.03
2017-10-15T02:33:36.680Z,12.98
2017-10-15T02:36:04.299Z,12.67
2017-10-15T02:38:31.903Z,12.60
2017-10-15T02:40:59.545Z,14.50
2017-10-15T02:43:27.165Z,14.43
2017-10-15T02:45:56.816Z,13.07
2017-10-15T02:48:24.417Z,13.10
2017-10-15T02:50:52.010Z,14.00
2017-10-15T02:53:19.682Z,13.30
2017-10-15T02:55:47.309Z,13.13
2017-10-15T02:58:14.920Z,13.35
2017-10-15T03:00:42.585Z,12.57
2017-10-15T03:03:10.576Z,12.27
2017-10-15T03:05:39.019Z,12.10
2017-10-15T03:08:06.637Z,12.60
2017-10-15T03:10:35.171Z,12.10
2017-10-15T03:13:02.805Z,12.75
2017-10-15T03:15:31.193Z,13.07
2017-10-15T03:17:58.786Z,12.50
2017-10-15T03:20:26.381Z,11.90
2017-10-15T03:22:53.986Z,12.07
2017-10-15T03:25:21.594Z,11.75
2017-10-15T03:27:49.209Z,11.20
2017-10-15T03:30:16.805Z,11.93
2017-10-15T03:32:44.481Z,11.90
2017-10-15T03:35:12.989Z,11.88
2017-10-15T03:37:40.655Z,12.05
2017-10-15T03:40:09.066Z,11.68
2017-10-15T03:42:37.022Z,13.53
2017-10-15T03:45:04.647Z,12.18
2017-10-15T03:47:32.296Z,11.75
2017-10-15T03:49:59.927Z,13.90
2017-10-15T03:52:27.543Z,11.82
2017-10-15T03:54:55.964Z,13.82
2017-10-15T03:57:23.588Z,14.15
2017-10-15T03:59:51.189Z,13.45
2017-10-15T04:02:18.837Z,12.70
2017-10-15T04:04:46.476Z,14.68
2017-10-15T04:07:14.915Z,13.35
2017-10-15T04:09:42.551Z,12.98
2017-10-15T04:12:10.173Z,13.80
2017-10-15T04:14:37.845Z,13.10
2017-10-15T04:17:05.503Z,12.80
2017-10-15T04:19:33.911Z,13.70
2017-10-15T04:22:01.512Z,14.10
2017-10-15T04:24:29.124Z,13.02
2017-10-15T04:26:56.757Z,11.40
2017-10-15T04:29:24.712Z,10.82
2017-10-15T04:31:52.316Z,13.20
2017-10-15T04:34:19.893Z,12.82
2017-10-15T04:36:47.569Z,12.80
2017-10-15T04:39:15.183Z,12.90
2017-10-15T04:41:43.692Z,10.82
2017-10-15T04:44:11.269Z,11.40
2017-10-15T04:46:38.889Z,11.70
2017-10-15T04:49:06.528Z,12.00
2017-10-15T04:51:34.664Z,11.80
2017-10-15T04:54:02.291Z,13.15
2017-10-15T04:56:29.948Z,12.43
2017-10-15T04:58:58.966Z,11.80
2017-10-15T05:01:27.070Z,11.70
2017-10-15T05:03:54.686Z,12.48
2017-10-15T05:06:22.310Z,12.80
2017-10-15T05:08:50.767Z,11.90
2017-10-15T05:11:18.371Z,13.80
2017-10-15T05:13:45.997Z,12.55
2017-10-15T05:16:13.628Z,11.98
2017-10-15T05:18:41.205Z,13.57
2017-10-15T05:21:08.870Z,12.02
2017-10-15T05:23:36.460Z,13.88
2017-10-15T05:26:04.828Z,13.40
2017-10-15T05:28:32.437Z,13.80
2017-10-15T05:31:00.375Z,14.05
2017-10-15T05:33:27.994Z,13.50
2017-10-15T05:35:55.587Z,12.70
2017-10-15T05:38:24.037Z,13.80
2017-10-15T05:40:53.380Z,13.48
2017-10-15T05:43:21.828Z,13.40
2017-10-15T05:45:49.519Z,13.27
2017-10-15T05:48:17.902Z,13.50
2017-10-15T05:50:45.518Z,12.90
2017-10-15T05:53:13.171Z,13.13
2017-10-15T05:55:40.852Z,11.57
2017-10-15T05:58:08.475Z,12.70
2017-10-15T06:00:36.160Z,11.90
2017-10-15T06:03:04.126Z,11.38
2017-10-15T06:05:32.353Z,12.13
2017-10-15T06:07:59.954Z,11.73
2017-10-15T06:10:27.803Z,11.57
2017-10-15T06:12:55.438Z,10.43
2017-10-15T06:15:23.839Z,10.07
2017-10-15T06:17:51.467Z,11.63
2017-10-15T06:20:19.106Z,11.63
2017-10-15T06:22:46.732Z,11.20
2017-10-15T06:25:14.365Z,11.10
2017-10-15T06:27:42.750Z,11.65
2017-10-15T06:30:11.218Z,11.12
2017-10-15T06:32:39.624Z,10.15
2017-10-15T06:35:08.371Z,9.57
2017-10-15T06:37:35.982Z,10.55
2017-10-15T06:40:03.617Z,10.25
2017-10-15T06:42:31.252Z,9.38
2017-10-15T06:44:58.859Z,10.30
2017-10-15T06:47:27.189Z,9.57
2017-10-15T06:49:54.817Z,8.50
2017-10-15T06:52:23.313Z,9.65
2017-10-15T06:54:51.877Z,10.00
2017-10-15T06:57:19.489Z,10.73
2017-10-15T06:59:47.887Z,9.77
2017-10-15T07:02:15.535Z,10.10
2017-10-15T07:04:43.196Z,10.48
2017-10-15T07:07:11.568Z,10.03
2017-10-15T07:09:39.189Z,10.33
2017-10-15T07:12:07.704Z,10.00
2017-10-15T07:14:35.949Z,9.80
2017-10-15T07:17:03.526Z,9.23
2017-10-15T07:19:31.140Z,9.30
2017-10-15T07:21:58.869Z,9.10
2017-10-15T07:24:26.506Z,10.43
2017-10-15T07:26:54.141Z,9.27
2017-10-15T07:29:21.773Z,9.70
2017-10-15T07:31:50.251Z,10.30
2017-10-15T07:34:17.829Z,10.03
2017-10-15T07:36:46.239Z,9.63
2017-10-15T07:39:13.864Z,10.53
2017-10-15T07:41:42.258Z,10.57
2017-10-15T07:44:10.640Z,10.00
2017-10-15T07:46:38.226Z,10.03
2017-10-15T07:49:05.864Z,10.03
2017-10-15T07:51:33.450Z,9.97
2017-10-15T07:54:01.123Z,10.30
2017-10-15T07:56:28.713Z,10.10
2017-10-15T07:58:56.299Z,9.23
2017-10-15T08:01:24.666Z,9.93
2017-10-15T08:03:53.095Z,10.43
2017-10-15T08:06:20.828Z,10.80
2017-10-15T08:08:48.626Z,9.87
2017-10-15T08:11:16.220Z,9.43
2017-10-15T08:13:43.877Z,9.07
2017-10-15T08:16:11.534Z,10.33
2017-10-15T08:18:39.170Z,9.80
2017-10-15T08:21:06.782Z,9.70
2017-10-15T08:23:35.194Z,10.10
2017-10-15T08:26:02.806Z,9.90
2017-10-15T08:28:30.398Z,9.70
2017-10-15T08:30:58.098Z,9.77
2017-10-15T08:33:25.680Z,9.80
2017-10-15T08:35:53.286Z,9.07
2017-10-15T08:38:20.930Z,9.60
2017-10-15T08:40:48.562Z,9.90
2017-10-15T08:43:16.191Z,11.30
2017-10-15T08:45:43.829Z,8.93
2017-10-15T08:48:12.280Z,8.80
2017-10-15T08:50:39.868Z,9.07
2017-10-15T08:53:07.731Z,11.30
2017-10-15T08:55:35.373Z,9.97
2017-10-15T08:58:03.034Z,10.43
2017-10-15T09:00:31.258Z,9.67
2017-10-15T09:02:58.887Z,9.23
2017-10-15T09:05:33.349Z,8.67
2017-10-15T09:08:00.968Z,9.90
2017-10-15T09:10:29.344Z,9.97
2017-10-15T09:12:57.753Z,9.90
2017-10-15T09:15:25.343Z,10.50
2017-10-15T09:17:52.972Z,9.00
2017-10-15T09:20:21.193Z,9.43
2017-10-15T09:22:48.830Z,8.60
2017-10-15T09:25:16.442Z,8.47
2017-10-15T09:27:44.876Z,9.20
2017-10-15T09:30:13.256Z,9.27
2017-10-15T09:32:40.942Z,9.53
2017-10-15T09:35:08.632Z,9.23
2017-10-15T09:37:36.270Z,8.60
2017-10-15T09:40:04.023Z,9.80
2017-10-15T09:42:31.627Z,9.17
2017-10-15T09:45:00.036Z,8.93
2017-10-15T09:47:27.637Z,9.07
2017-10-15T09:49:55.230Z,9.17
2017-10-15T09:52:22.856Z,10.37
2017-10-15T09:54:50.454Z,8.70
2017-10-15T09:57:18.093Z,10.50
2017-10-15T09:59:45.687Z,9.00
2017-10-15T10:02:13.302Z,9.30
2017-10-15T10:04:41.013Z,9.57
2017-10-15T10:07:08.594Z,8.50
2017-10-15T10:09:36.238Z,8.37
2017-10-15T10:12:03.867Z,8.83
2017-10-15T10:14:31.504Z,8.87
2017-10-15T10:16:59.136Z,9.20
2017-10-15T10:19:26.776Z,7.87
2017-10-15T10:21:54.535Z,11.40
2017-10-15T10:24:22.162Z,9.17
2017-10-15T10:26:50.624Z,8.27
2017-10-15T10:29:18.497Z,8.30
2017-10-15T10:31:46.153Z,9.20
2017-10-15T10:34:13.806Z,8.27
2017-10-15T10:36:41.453Z,7.40
2017-10-15T10:39:09.073Z,7.87
2017-10-15T10:41:37.414Z,8.10
2017-10-15T10:44:05.014Z,6.80
2017-10-15T10:46:33.357Z,7.17
2017-10-15T10:49:00.975Z,7.87
2017-10-15T10:51:28.668Z,7.60
2017-10-15T10:53:56.321Z,6.30
2017-10-15T10:56:23.943Z,7.37
2017-10-15T10:58:51.544Z,6.13
2017-10-15T11:01:19.141Z,6.97
2017-10-15T11:03:46.707Z,7.13
2017-10-15T11:06:15.091Z,6.17
2017-10-15T11:08:44.233Z,5.63
2017-10-15T11:11:11.825Z,6.07
2017-10-15T11:13:39.445Z,7.83
2017-10-15T11:16:07.097Z,6.20
2017-10-15T11:18:34.772Z,5.87
2017-10-15T11:21:02.339Z,5.90
2017-10-15T11:23:29.957Z,6.07
2017-10-15T11:25:58.293Z,5.13
2017-10-15T11:28:25.893Z,4.77
2017-10-15T11:30:53.519Z,5.90
2017-10-15T11:33:21.273Z,5.77
2017-10-15T11:35:48.854Z,5.67
2017-10-15T11:38:18.306Z,5.07
2017-10-15T11:40:45.973Z,5.13
2017-10-15T11:43:13.580Z,5.67
2017-10-15T11:45:41.272Z,5.23
2017-10-15T11:48:08.910Z,5.07
2017-10-15T11:50:36.513Z,4.90
2017-10-15T11:53:04.113Z,4.87
2017-10-15T11:55:31.692Z,4.90
2017-10-15T11:57:59.288Z,4.30
2017-10-15T12:00:26.893Z,3.87
2017-10-15T12:02:54.528Z,4.63
2017-10-15T12:05:22.213Z,3.83
2017-10-15T12:07:49.814Z,4.43
2017-10-15T12:10:18.207Z,4.37
2017-10-15T12:12:46.585Z,3.60
2017-10-15T12:15:14.188Z,4.03
2017-10-15T12:17:41.785Z,5.03
2017-10-15T12:20:09.548Z,4.10
2017-10-15T12:22:37.960Z,4.67
2017-10-15T12:25:05.548Z,4.00
2017-10-15T12:27:33.160Z,3.70
2017-10-15T12:30:01.501Z,3.73
2017-10-15T12:32:29.498Z,4.03
2017-10-15T12:34:57.995Z,4.00
2017-10-15T12:37:26.351Z,5.83
2017-10-15T12:39:54.023Z,4.43
2017-10-15T12:42:22.452Z,4.00
2017-10-15T12:44:50.077Z,4.03
2017-10-15T12:47:18.790Z,4.50
2017-10-15T12:49:46.448Z,3.70
2017-10-15T12:52:14.148Z,4.63
2017-10-15T12:54:42.537Z,4.07
2017-10-15T12:57:10.165Z,3.70
2017-10-15T12:59:37.782Z,4.83
2017-10-15T13:02:05.453Z,3.80
2017-10-15T13:04:33.791Z,4.60
2017-10-15T13:07:01.402Z,4.17
2017-10-15T13:09:29.008Z,3.73
2017-10-15T13:11:56.621Z,4.87
2017-10-15T13:14:24.189Z,5.23
2017-10-15T13:16:51.762Z,3.93
2017-10-15T13:19:19.416Z,3.97
2017-10-15T13:21:47.928Z,4.83
2017-10-15T13:24:15.598Z,3.97
2017-10-15T13:26:43.160Z,4.97
2017-10-15T13:29:10.791Z,3.97
2017-10-15T13:31:38.404Z,5.30
2017-10-15T13:34:06.017Z,4.50
2017-10-15T13:36:33.701Z,4.30
2017-10-15T13:39:01.306Z,4.17
2017-10-15T13:41:28.926Z,3.57
2017-10-15T13:43:56.539Z,3.63
2017-10-15T13:46:24.188Z,5.10
2017-10-15T13:48:51.783Z,4.63
2017-10-15T13:51:19.365Z,4.53
2017-10-15T13:53:46.990Z,4.50
2017-10-15T13:56:14.628Z,4.57
2017-10-15T13:58:43.030Z,4.97
2017-10-15T14:01:10.657Z,4.40
2017-10-15T14:03:38.242Z,4.90
2017-10-15T14:06:05.884Z,3.73
2017-10-15T14:08:33.503Z,3.90
2017-10-15T14:11:01.117Z,4.50
2017-10-15T14:13:29.470Z,3.60
2017-10-15T14:15:57.069Z,4.30
2017-10-15T14:18:24.670Z,4.50
2017-10-15T14:20:52.326Z,5.17
2017-10-15T14:23:19.903Z,4.70
2017-10-15T14:25:47.555Z,4.23
2017-10-15T14:28:15.157Z,4.90
2017-10-15T14:30:43.436Z,4.10
2017-10-15T14:33:11.780Z,4.33
2017-10-15T14:35:39.403Z,4.93
2017-10-15T14:38:06.988Z,5.20
2017-10-15T14:40:34.663Z,4.80
2017-10-15T14:43:02.279Z,4.57
2017-10-15T14:45:29.924Z,4.77
2017-10-15T14:47:58.043Z,4.20
2017-10-15T14:50:25.639Z,4.30
2017-10-15T14:52:54.025Z,4.20
2017-10-15T14:55:22.380Z,5.23
2017-10-15T14:57:50.857Z,4.80
2017-10-15T15:00:18.514Z,5.77
2017-10-15T15:02:46.128Z,4.53
2017-10-15T15:05:13.777Z,4.57
2017-10-15T15:07:42.144Z,3.90
2017-10-15T15:10:10.497Z,4.60
2017-10-15T15:12:38.120Z,6.20
2017-10-15T15:15:05.727Z,4.53
2017-10-15T15:17:33.376Z,5.00
2017-10-15T15:20:00.996Z,5.50
2017-10-15T15:22:28.612Z,5.40
2017-10-15T15:24:56.231Z,5.60
2017-10-15T15:27:24.132Z,4.60
2017-10-15T15:29:51.757Z,4.87
2017-10-15T15:32:19.337Z,6.37
2017-10-15T15:34:46.925Z,6.10
2017-10-15T15:37:14.565Z,5.40
2017-10-15T15:39:42.146Z,5.60
2017-10-15T15:42:10.358Z,5.60
2017-10-15T15:44:37.958Z,5.70
2017-10-15T15:47:06.411Z,5.90
2017-10-15T15:49:34.011Z,6.27
2017-10-15T15:52:01.646Z,6.07
2017-10-15T15:54:29.513Z,5.73
2017-10-15T15:56:57.120Z,5.30
2017-10-15T15:59:25.491Z,6.10
2017-10-15T16:01:53.912Z,6.47
2017-10-15T16:04:21.639Z,6.40
2017-10-15T16:06:49.220Z,6.30
2017-10-15T16:09:16.857Z,6.50
2017-10-15T16:11:44.463Z,6.73
2017-10-15T16:14:12.146Z,6.60
2017-10-15T16:16:39.709Z,6.93
2017-10-15T16:19:07.669Z,5.57
2017-10-15T16:21:35.290Z,6.37
2017-10-15T16:24:02.925Z,6.67
2017-10-15T16:26:31.305Z,6.17
2017-10-15T16:28:58.938Z,7.50
2017-10-15T16:31:26.574Z,8.10
2017-10-15T16:33:54.185Z,9.17
2017-10-15T16:36:21.861Z,11.00
2017-10-15T16:38:50.246Z,9.10
2017-10-15T16:41:18.666Z,7.90
2017-10-15T16:43:46.221Z,9.27
2017-10-15T16:46:14.552Z,9.97
2017-10-15T16:48:42.170Z,13.13
2017-10-15T16:51:09.756Z,12.13
2017-10-15T16:53:37.390Z,12.00
2017-10-15T16:56:04.998Z,15.37
2017-10-15T16:58:32.622Z,22.70
2017-10-15T17:01:00.203Z,28.50
2017-10-15T17:03:27.854Z,25.87
2017-10-15T17:05:55.496Z,28.93
2017-10-15T17:08:24.059Z,28.90
2017-10-15T17:10:51.707Z,22.27
2017-10-15T17:13:20.086Z,17.90
2017-10-15T17:15:47.690Z,15.10
2017-10-15T17:18:15.328Z,16.63
2017-10-15T17:20:42.963Z,15.60
2017-10-15T17:23:10.562Z,15.00
2017-10-15T17:25:38.157Z,15.23
2017-10-15T17:28:05.770Z,15.27
2017-10-15T17:30:33.373Z,15.33
2017-10-15T17:33:00.997Z,14.80
2017-10-15T17:35:28.632Z,15.70
2017-10-15T17:37:57.010Z,15.70
2017-10-15T17:40:25.415Z,17.20
2017-10-15T17:42:53.048Z,13.53
2017-10-15T17:45:20.756Z,16.37
2017-10-15T17:47:48.350Z,15.03
2017-10-15T17:50:16.022Z,13.93
2017-10-15T17:52:45.116Z,12.30
2017-10-15T17:55:12.742Z,20.70
2017-10-15T17:57:40.397Z,13.80
2017-10-15T18:00:08.031Z,11.00
2017-10-15T18:02:35.651Z,11.60
2017-10-15T18:05:03.231Z,11.70
2017-10-15T18:07:31.660Z,9.87
2017-10-15T18:09:59.284Z,9.93
2017-10-15T18:12:26.918Z,10.67
2017-10-15T18:14:54.583Z,11.03
2017-10-15T18:17:22.905Z,9.00
2017-10-15T18:19:51.407Z,8.20
2017-10-15T18:22:19.129Z,18.00
2017-10-15T18:24:46.792Z,8.20
2017-10-15T18:27:14.450Z,9.27
2017-10-15T18:29:42.841Z,10.73
2017-10-15T18:32:10.427Z,9.23
2017-10-15T18:34:38.050Z,9.30
2017-10-15T18:37:06.465Z,10.20
2017-10-15T18:39:34.073Z,9.50
2017-10-15T18:42:01.692Z,11.70
2017-10-15T18:44:29.308Z,46.43
2017-10-15T18:46:56.923Z,41.80
2017-10-15T18:49:24.533Z,87.80
2017-10-15T18:51:52.189Z,93.40
2017-10-15T18:54:19.850Z,15.73
2017-10-15T18:56:49.015Z,31.53
2017-10-15T18:59:17.437Z,35.60
2017-10-15T19:01:45.082Z,25.00
2017-10-15T19:04:13.450Z,15.00
2017-10-15T19:06:41.128Z,9.00
2017-10-15T19:09:09.509Z,9.00
2017-10-15T19:11:37.161Z,9.27
2017-10-15T19:14:05.519Z,9.00
2017-10-15T19:16:33.118Z,10.70
2017-10-15T19:19:00.769Z,10.20
2017-10-15T19:21:29.152Z,10.00
2017-10-15T19:23:56.796Z,9.17
2017-10-15T19:26:24.389Z,10.13
2017-10-15T19:28:52.000Z,10.40
2017-10-15T19:31:20.457Z,10.17
2017-10-15T19:33:48.801Z,9.70
2017-10-15T19:36:16.440Z,8.57
2017-10-15T19:38:44.445Z,10.20
2017-10-15T19:41:12.049Z,10.30
2017-10-15T19:43:39.664Z,9.80
2017-10-15T19:46:07.296Z,10.27
2017-10-15T19:48:34.968Z,10.40
2017-10-15T19:51:03.778Z,10.03
2017-10-15T19:53:31.397Z,11.17
2017-10-15T19:55:59.000Z,11.80
2017-10-15T19:58:26.609Z,11.20
2017-10-15T20:00:55.069Z,10.23
2017-10-15T20:03:22.703Z,10.63
2017-10-15T20:05:50.390Z,11.23
2017-10-15T20:08:18.066Z,12.10
2017-10-15T20:10:45.679Z,10.47
2017-10-15T20:13:13.608Z,12.03
2017-10-15T20:15:41.205Z,10.93
2017-10-15T20:18:08.905Z,10.40
2017-10-15T20:20:36.579Z,10.80
2017-10-15T20:23:04.167Z,10.23
2017-10-15T20:25:31.899Z,10.70
2017-10-15T20:27:59.967Z,10.33
2017-10-15T20:30:28.146Z,11.47
2017-10-15T20:32:55.793Z,10.13
2017-10-15T20:35:23.423Z,10.50
2017-10-15T20:37:51.197Z,10.60
2017-10-15T20:40:18.796Z,9.93
2017-10-15T20:42:46.421Z,10.70
2017-10-15T20:45:14.022Z,10.57
2017-10-15T20:47:41.641Z,9.90
2017-10-15T20:50:09.225Z,9.50
2017-10-15T20:52:37.658Z,8.50
2017-10-15T20:55:06.026Z,10.30
2017-10-15T20:57:34.432Z,10.90
2017-10-15T21:00:02.033Z,10.47
2017-10-15T21:02:29.716Z,10.50
2017-10-15T21:04:57.382Z,10.60
2017-10-15T21:07:25.054Z,10.23
2017-10-15T21:09:53.449Z,9.87
2017-10-15T21:12:21.061Z,9.87
2017-10-15T21:14:48.660Z,10.87
2017-10-15T21:17:17.480Z,10.73
2017-10-15T21:19:45.066Z,11.17
2017-10-15T21:22:12.669Z,10.47
2017-10-15T21:24:41.024Z,11.63
2017-10-15T21:27:08.668Z,11.53
2017-10-15T21:29:36.471Z,10.40
2017-10-15T21:32:04.816Z,10.30
2017-10-15T21:34:32.416Z,12.10
2017-10-15T21:37:00.798Z,10.37
2017-10-15T21:39:28.428Z,13.27
2017-10-15T21:41:56.054Z,12.07
2017-10-15T21:44:23.742Z,9.20
2017-10-15T21:46:51.370Z,11.87
2017-10-15T21:49:19.050Z,12.70
2017-10-15T21:51:46.710Z,11.53
2017-10-15T21:54:14.307Z,10.93
2017-10-15T21:56:42.480Z,11.37
2017-10-15T21:59:10.087Z,11.03
2017-10-15T22:01:38.552Z,11.20
2017-10-15T22:04:06.141Z,12.70
2017-10-15T22:06:33.770Z,11.43
2017-10-15T22:09:02.999Z,12.57
2017-10-15T22:11:30.657Z,12.10
2017-10-15T22:13:58.312Z,11.80
2017-10-15T22:16:25.891Z,12.37
2017-10-15T22:18:59.194Z,12.93
2017-10-15T22:21:32.648Z,12.83
2017-10-15T22:24:00.274Z,13.33
2017-10-15T22:26:27.858Z,12.30
2017-10-15T22:28:56.259Z,12.90
2017-10-15T22:31:23.865Z,12.67
2017-10-15T22:33:52.167Z,12.30
2017-10-15T22:36:19.787Z,14.03
2017-10-15T22:38:48.242Z,13.23
2017-10-15T22:41:15.867Z,13.10
2017-10-15T22:43:43.506Z,12.63
2017-10-15T22:46:11.169Z,12.33
2017-10-15T22:48:38.787Z,12.03
2017-10-15T22:51:06.400Z,12.47
2017-10-15T22:53:34.822Z,12.50
2017-10-15T22:56:02.476Z,12.37
2017-10-15T22:58:30.127Z,13.20
2017-10-15T23:00:58.480Z,12.67
2017-10-15T23:03:26.951Z,12.37
2017-10-15T23:05:54.551Z,14.00
2017-10-15T23:08:22.949Z,13.57
2017-10-15T23:10:50.587Z,14.10
2017-10-15T23:13:18.195Z,14.40
2017-10-15T23:15:45.794Z,13.73
2017-10-15T23:18:13.419Z,14.63
2017-10-15T23:20:41.986Z,14.83
2017-10-15T23:23:09.559Z,14.03
2017-10-15T23:25:37.206Z,15.03
2017-10-15T23:28:04.822Z,15.43
2017-10-15T23:30:33.176Z,15.00
2017-10-15T23:33:00.790Z,13.53
2017-10-15T23:35:28.477Z,13.70
2017-10-15T23:37:56.116Z,15.10
2017-10-15T23:40:23.703Z,13.23
2017-10-15T23:42:51.331Z,14.20
2017-10-15T23:45:18.985Z,13.30
2017-10-15T23:47:47.362Z,14.50
2017-10-15T23:50:15.752Z,14.30
2017-10-15T23:52:43.349Z,12.83
2017-10-15T23:55:10.958Z,13.57
2017-10-15T23:57:40.233Z,13.83
